Latest Weather Observations for Jabiru

IDD60801

Issued at 10:31 am CST Sunday 26 April 2015 (issued every 30 minutes, with the page automatically refreshed every 10 minutes)

About weather observations | Map of weather stations | Latest weather observations for NT | Other Formats
Station Details ID: 014198 Name: JABIRU AIRPORT Lat: -12.66 Lon: 132.89 Height: 26.5 m
Data from the previous 72 hours. | See also: Recent months at Jabiru
Date/Time
CST
Temp
°C
App
Temp
°C
Dew
Point
Rel
Hum
%
Delta-T
°C
Wind Press
QNH
hPa
Press
MSL
hPa
Rain
since 9 am
mm
Dir
 
Spd
km/h
Gust
km/h
Spd
kts
Gust
kts
26/10:30am 29.3 26.7 13.1 37 9.6 SE 19 32 10 17 1013.9 1013.7 0.0
26/10:00am 28.8 27.1 14.6 42 8.6 ESE 17 24 9 13 1014.0 1013.8 0.0
26/09:30am 27.7 25.1 15.0 45 7.7 ESE 22 35 12 19 1013.8 1013.6 0.0
26/09:00am 26.6 25.9 17.4 57 5.8 ESE 17 26 9 14 1013.7 1013.5 0.0
26/08:30am 25.7 25.4 17.4 60 5.2 ESE 15 24 8 13 1013.6 1013.4 0.0
26/08:00am 24.3 24.7 17.3 65 4.3 E 11 15 6 8 1013.6 1013.4 0.0
26/07:30am 22.4 22.5 16.4 69 3.6 E 11 15 6 8 1013.2 1013.0 0.0
26/07:00am 20.5 21.1 15.7 74 2.9 E 7 9 4 5 1012.7 1012.5 0.0
26/06:30am 20.6 21.1 15.6 73 3.0 E 7 9 4 5 1012.3 1012.1 0.0
26/06:00am 20.7 20.6 15.0 70 3.4 E 9 11 5 6 1012.1 1011.9 0.0
26/05:30am 21.0 20.8 14.6 67 3.8 E 9 11 5 6 1012.0 1011.8 0.0
26/05:00am 21.4 21.0 14.1 63 4.3 E 9 13 5 7 1012.1 1011.9 0.0
26/04:30am 21.4 20.5 13.6 61 4.5 E 11 13 6 7 1011.9 1011.7 0.0
26/04:00am 22.7 21.4 12.6 53 5.8 E 11 15 6 8 1011.9 1011.7 0.0
26/03:30am 23.2 21.4 12.2 50 6.3 E 13 17 7 9 1011.8 1011.6 0.0
26/03:00am 23.2 21.2 11.6 48 6.5 E 13 15 7 8 1011.6 1011.4 0.0
26/02:30am 23.2 21.5 11.3 47 6.7 E 11 13 6 7 1011.7 1011.5 0.0
26/02:00am 24.0 22.1 11.7 46 7.0 E 13 15 7 8 1011.8 1011.6 0.0
26/01:30am 23.7 22.7 13.3 52 6.0 E 11 13 6 7 1011.8 1011.6 0.0
26/01:00am 23.8 23.2 13.4 52 6.0 E 9 13 5 7 1011.9 1011.7 0.0
26/12:30am 24.9 24.2 13.1 48 6.9 ESE 9 13 5 7 1012.1 1011.9 0.0
26/12:00am 25.8 24.9 12.6 44 7.6 ESE 9 11 5 6 1012.2 1012.0 0.0
 
Date/Time
CST
Temp
°C
App
Temp
°C
Dew
Point
Rel
Hum
%
Delta-T
°C
Wind Press
QNH
hPa
Press
MSL
hPa
Rain
since 9 am
mm
Dir
 
Spd
km/h
Gust
km/h
Spd
kts
Gust
kts
25/11:30pm 26.3 25.3 12.4 42 8.0 ESE 9 11 5 6 1012.1 1011.9 0.0
25/11:00pm 26.3 25.7 13.4 45 7.6 ESE 9 13 5 7 1012.3 1012.1 0.0
25/10:30pm 25.7 26.0 15.1 52 6.4 ESE 7 11 4 6 1012.4 1012.2 0.0
25/10:00pm 25.9 26.1 14.1 48 7.0 E 6 7 3 4 1012.3 1012.1 0.0
25/09:30pm 26.5 26.5 13.6 45 7.6 ESE 6 7 3 4 1012.0 1011.8 0.0
25/09:00pm 27.2 27.1 13.9 44 7.9 ESE 7 7 4 4 1011.9 1011.7 0.0
25/08:30pm 29.6 28.7 12.5 35 10.1 ESE 9 15 5 8 1011.5 1011.3 0.0
25/08:00pm 30.0 28.9 12.0 33 10.5 SE 9 17 5 9 1011.0 1010.8 0.0
25/07:30pm 30.3 29.0 11.3 31 11.0 SE 9 13 5 7 1010.5 1010.3 0.0
25/07:00pm 31.1 29.7 11.0 29 11.6 ESE 9 13 5 7 1010.1 1009.9 0.0
25/06:30pm 31.8 29.9 10.5 27 12.3 SE 11 15 6 8 1009.7 1009.5 0.0
25/06:00pm 32.8 31.5 11.3 27 12.6 ESE 9 15 5 8 1009.3 1009.1 0.0
25/05:30pm 33.9 31.8 9.9 23 13.8 ESE 11 15 6 8 1009.0 1008.8 0.0
25/05:00pm 34.6 32.5 9.8 22 14.3 E 11 17 6 9 1008.6 1008.4 0.0
25/04:30pm 35.1 33.1 8.8 20 15.0 ESE 9 19 5 10 1008.5 1008.3 0.0
25/04:00pm 34.9 32.5 8.6 20 14.9 E 11 17 6 9 1008.4 1008.2 0.0
25/03:30pm 34.9 31.4 7.1 18 15.4 SE 15 22 8 12 1008.2 1008.0 0.0
25/03:00pm 35.4 32.0 9.0 20 15.1 E 17 20 9 11 1008.4 1008.2 0.0
25/02:30pm 34.8 31.8 7.8 19 15.1 ESE 13 24 7 13 1008.6 1008.4 0.0
25/02:00pm 34.8 32.4 8.5 20 14.9 ENE 11 20 6 11 1009.0 1008.8 0.0
25/01:30pm 34.6 31.6 7.6 19 15.1 ESE 13 20 7 11 1009.5 1009.3 0.0
25/01:00pm 33.9 30.7 9.9 23 13.8 ESE 17 26 9 14 1010.0 1009.8 0.0
25/12:30pm 33.7 30.8 10.9 25 13.3 E 17 24 9 13 1010.1 1009.9 0.0
25/12:00pm 33.7 30.8 10.9 25 13.3 E 17 28 9 15 1010.5 1010.3 0.0
25/11:30am 33.1 31.8 13.7 31 11.8 E 13 20 7 11 1011.0 1010.8 0.0
25/11:00am 31.7 31.4 16.4 39 9.6 E 13 20 7 11 1011.4 1011.2 0.0
25/10:30am 31.2 32.1 17.5 44 8.7 ESE 9 13 5 7 1011.7 1011.5 0.0
25/10:00am 30.2 31.4 18.3 49 7.7 E 9 15 5 8 1011.7 1011.5 0.0
25/09:30am 29.0 29.3 18.7 53 6.6 E 15 19 8 10 1011.8 1011.6 0.0
25/09:00am 28.2 28.7 18.3 55 6.3 E 13 17 7 9 1011.6 1011.4 0.0
25/08:30am 27.8 29.6 18.8 58 5.8 ESE 7 15 4 8 1011.6 1011.4 0.0
25/08:00am 25.8 28.8 20.8 74 3.3 E 6 9 3 5 1011.4 1011.2 0.0
25/07:30am 24.1 27.5 21.0 83 2.0 E 4 6 2 3 1011.1 1010.9 0.0
25/07:00am 22.9 26.5 20.6 87 1.5 ESE 2 6 1 3 1011.0 1010.8 0.0
25/06:30am 22.6 25.4 20.5 88 1.4 E 6 7 3 4 1010.7 1010.5 0.0
25/06:00am 22.8 26.8 20.5 87 1.5 CALM 0 0 0 0 1010.5 1010.3 0.0
25/05:30am 23.1 27.0 20.4 85 1.8 CALM 0 0 0 0 1010.3 1010.1 0.0
25/05:00am 23.6 27.6 20.5 83 2.0 CALM 0 0 0 0 1010.3 1010.1 0.0
25/04:30am 24.0 28.1 20.7 82 2.2 CALM 0 0 0 0 1010.3 1010.1 0.0
25/04:00am 23.8 27.4 20.5 82 2.1 SSE 2 7 1 4 1010.3 1010.1 0.0
25/03:30am 24.2 27.0 20.5 80 2.4 ESE 6 7 3 4 1010.3 1010.1 0.0
25/03:00am 24.0 26.8 20.5 81 2.3 E 6 7 3 4 1010.3 1010.1 0.0
25/02:30am 24.5 28.4 20.4 78 2.7 CALM 0 0 0 0 1010.3 1010.1 0.0
25/02:00am 24.9 28.9 20.6 77 2.8 CALM 0 0 0 0 1010.3 1010.1 0.0
25/01:30am 25.1 28.0 20.6 76 2.9 SSE 6 7 3 4 1010.7 1010.5 0.0
25/01:00am 25.4 28.0 20.4 74 3.3 SSW 7 9 4 5 1011.1 1010.9 0.0
25/12:30am 25.8 28.0 20.4 72 3.5 SSW 9 11 5 6 1011.2 1011.0 0.0
25/12:00am 26.8 29.6 20.4 68 4.2 W 6 7 3 4 1011.1 1010.9 0.0
 
Date/Time
CST
Temp
°C
App
Temp
°C
Dew
Point
Rel
Hum
%
Delta-T
°C
Wind Press
QNH
hPa
Press
MSL
hPa
Rain
since 9 am
mm
Dir
 
Spd
km/h
Gust
km/h
Spd
kts
Gust
kts
24/11:30pm 27.1 29.7 20.4 66 4.4 WNW 7 11 4 6 1011.2 1011.0 0.0
24/11:00pm 27.5 30.0 20.3 65 4.7 NW 7 9 4 5 1011.2 1011.0 0.0
24/10:30pm 27.9 30.8 21.0 66 4.6 NW 7 9 4 5 1011.3 1011.1 0.0
24/10:00pm 28.1 30.9 20.9 65 4.8 NW 7 7 4 4 1011.3 1011.1 0.0
24/09:30pm 28.4 31.0 21.2 65 4.8 N 9 11 5 6 1011.2 1011.0 0.0
24/09:00pm 28.9 31.8 21.7 65 4.8 NNW 9 13 5 7 1010.9 1010.7 0.0
24/08:30pm 29.4 32.2 20.8 60 5.7 N 7 11 4 6 1010.6 1010.4 0.0
24/08:00pm 29.8 33.8 20.6 57 6.1 CALM 0 6 0 3 1009.9 1009.7 0.0
24/07:30pm 31.2 34.9 19.9 51 7.5 CALM 0 0 0 0 1009.2 1009.0 0.0
24/07:00pm 31.8 35.6 20.1 50 7.8 CALM 0 2 0 1 1008.8 1008.6 0.0
24/06:30pm 32.1 34.0 19.0 45 8.6 WNW 7 9 4 5 1008.4 1008.2 0.0
24/06:00pm 33.7 37.0 19.0 42 9.7 CALM 0 6 0 3 1008.1 1007.9 0.0
24/05:30pm 33.5 35.0 17.6 38 10.2 ENE 6 7 3 4 1007.6 1007.5 0.0
24/05:00pm 34.3 34.9 15.7 32 11.7 SE 7 9 4 5 1007.4 1007.3 0.0
24/04:30pm 35.3 35.8 16.6 33 12.0 E 9 17 5 9 1007.2 1007.1 0.0
24/04:00pm 35.3 35.2 16.1 32 12.2 E 11 19 6 10 1007.1 1007.0 0.0
24/03:30pm 34.5 35.5 16.8 34 11.3 NE 7 15 4 8 1007.3 1007.2 0.0
24/03:00pm 35.1 36.9 17.3 34 11.5 SSE 4 11 2 6 1007.6 1007.5 0.0
24/02:30pm 34.9 35.7 17.2 35 11.4 ESE 9 15 5 8 1007.8 1007.7 0.0
24/02:00pm 34.2 35.3 17.0 36 11.0 SE 7 17 4 9 1008.3 1008.1 0.0
24/01:30pm 33.1 33.5 18.1 41 9.7 SE 13 20 7 11 1008.7 1008.5 0.0
24/01:00pm 33.5 34.8 18.4 40 9.8 SE 9 15 5 8 1009.1 1008.9 0.0
24/12:30pm 33.3 34.5 19.0 42 9.4 SSE 11 20 6 11 1009.6 1009.4 0.0
24/12:00pm 33.0 34.2 19.8 45 8.7 E 13 20 7 11 1010.1 1009.9 0.0
24/11:30am 32.0 34.1 19.3 47 8.3 E 7 20 4 11 1010.7 1010.5 0.0
24/11:00am 31.7 34.1 20.0 50 7.7 ENE 7 15 4 8 1011.1 1010.9 0.0
24/10:30am 30.7 33.5 20.9 56 6.5 ENE 7 17 4 9 1011.6 1011.4 0.0
24/10:00am 30.6 33.7 21.4 58 6.2 ENE 7 11 4 6 1011.7 1011.5 0.0
24/09:30am 29.9 32.5 20.5 57 6.2 SE 7 17 4 9 1011.8 1011.6 0.0
24/09:00am 29.0 32.3 21.5 64 5.0 SE 6 7 3 4 1011.7 1011.5 0.0
24/08:30am 27.7 32.2 22.2 72 3.7 E 2 7 1 4 1011.6 1011.4 0.0
24/08:00am 26.5 30.5 22.8 80 2.5 ENE 6 7 3 4 1011.3 1011.1 0.0
24/07:30am 25.1 28.9 22.4 85 1.8 ENE 6 7 3 4 1011.1 1010.9 0.0
24/07:00am 23.8 27.8 22.1 90 1.1 E 4 7 2 4 1011.0 1010.8 0.0
24/06:30am 24.1 28.7 21.8 87 1.5 CALM 0 0 0 0 1010.8 1010.6 0.0
24/06:00am 24.1 28.8 22.0 88 1.4 CALM 0 0 0 0 1010.8 1010.6 0.0
24/05:30am 24.5 29.3 22.2 87 1.5 CALM 0 0 0 0 1010.5 1010.3 0.0
24/05:00am 24.7 29.4 22.0 85 1.8 CALM 0 0 0 0 1010.4 1010.2 0.0
24/04:30am 24.5 29.2 22.0 86 1.7 CALM 0 0 0 0 1010.4 1010.2 0.0
24/04:00am 24.8 29.2 22.1 85 1.8 NE 2 6 1 3 1010.2 1010.0 0.0
24/03:30am 24.2 27.4 21.7 86 1.7 NNE 7 7 4 4 1010.2 1010.0 0.0
24/03:00am 25.0 28.4 21.7 82 2.2 SW 6 7 3 4 1009.8 1009.6 0.0
24/02:30am 25.0 28.3 21.9 83 2.1 SSW 7 9 4 5 1009.9 1009.7 0.0
24/02:00am 25.0 28.3 21.9 83 2.1 S 7 11 4 6 1010.1 1009.9 0.0
24/01:30am 25.1 28.6 22.2 84 1.9 SSW 7 9 4 5 1010.4 1010.2 0.0
24/01:00am 25.4 28.5 22.1 82 2.2 SSW 9 9 5 5 1010.6 1010.4 0.0
24/12:30am 25.9 29.5 22.4 81 2.4 SW 7 11 4 6 1010.7 1010.5 0.0
24/12:00am 26.2 29.8 22.3 79 2.6 SW 7 11 4 6 1010.8 1010.6 0.0
 
Date/Time
CST
Temp
°C
App
Temp
°C
Dew
Point
Rel
Hum
%
Delta-T
°C
Wind Press
QNH
hPa
Press
MSL
hPa
Rain
since 9 am
mm
Dir
 
Spd
km/h
Gust
km/h
Spd
kts
Gust
kts
23/11:30pm 26.7 31.5 22.1 76 3.1 CALM 0 0 0 0 1010.9 1010.7 0.0
23/11:00pm 27.3 31.5 22.5 75 3.2 NNW 4 7 2 4 1010.9 1010.7 0.0
23/10:30pm 27.4 31.0 22.1 73 3.6 N 6 7 3 4 1011.0 1010.8 0.0
23/10:00pm 27.6 31.1 21.9 71 3.8 NNW 6 9 3 5 1011.1 1010.9 0.0
23/09:30pm 28.4 31.7 21.9 68 4.4 NNW 7 9 4 5 1011.0 1010.8 0.0
23/09:00pm 28.5 31.6 21.5 66 4.7 N 7 11 4 6 1010.9 1010.7 0.0
23/08:30pm 29.3 31.4 20.2 58 6.0 N 9 11 5 6 1010.5 1010.3 0.0
23/08:00pm 30.2 32.4 19.6 53 6.9 NW 7 9 4 5 1009.9 1009.7 0.0
23/07:30pm 30.4 32.6 19.7 52 7.0 W 7 9 4 5 1009.5 1009.3 0.0
23/07:00pm 31.1 33.1 19.1 48 7.8 NW 7 9 4 5 1009.1 1008.9 0.0
23/06:30pm 31.7 33.6 19.0 47 8.3 NW 7 11 4 6 1008.8 1008.6 0.0
23/06:00pm 33.1 34.5 17.7 40 9.9 NNW 7 11 4 6 1008.4 1008.2 0.0
23/05:30pm 33.7 34.4 17.0 37 10.7 NNW 9 13 5 7 1008.1 1007.9 0.0
23/05:00pm 34.9 35.8 16.7 34 11.6 NNW 7 11 4 6 1007.7 1007.6 0.0
23/04:30pm 35.0 35.8 15.8 31 12.1 E 6 11 3 6 1007.5 1007.4 0.0
23/04:00pm 35.3 35.6 16.1 32 12.2 NNW 9 13 5 7 1007.4 1007.3 0.0
23/03:30pm 34.6 34.9 16.0 33 11.8 ENE 9 17 5 9 1007.5 1007.4 0.0
23/03:00pm 34.5 34.0 14.9 31 12.2 E 11 17 6 9 1007.8 1007.7 0.0
23/02:30pm 34.1 33.9 14.6 31 12.1 ENE 9 17 5 9 1008.2 1008.0 0.0
23/02:00pm 34.2 34.0 14.7 31 12.1 E 9 15 5 8 1008.5 1008.3 0.0
23/01:30pm 34.3 33.2 15.2 31 11.9 ENE 15 22 8 12 1008.9 1008.7 0.0
23/01:00pm 33.6 33.0 14.6 31 11.7 SSE 11 20 6 11 1009.4 1009.2 0.0
23/12:30pm 33.5 33.4 15.0 32 11.5 ENE 9 20 5 11 1009.7 1009.5 0.0
23/12:00pm 32.5 31.5 14.6 34 11.0 E 13 20 7 11 1010.1 1009.9 0.0
23/11:30am 32.5 31.5 14.6 34 11.0 E 13 17 7 9 1010.5 1010.3 0.0
23/11:00am 32.0 31.7 15.5 37 10.2 E 11 15 6 8 1011.1 1010.9 0.0

Other Formats:

Comma delimited format used in spreadsheet applications
http://www.bom.gov.au/fwo/IDD60801/IDD60801.94137.axf

JavaScript Object Notation format (JSON) in row-major order
http://www.bom.gov.au/fwo/IDD60801/IDD60801.94137.json